createdAt,value
2017-10-17T07:11:53.154Z,22.20
2017-10-17T07:14:19.585Z,24.93
2017-10-17T07:16:46.155Z,25.53
2017-10-17T07:19:12.657Z,23.53
2017-10-17T07:21:39.108Z,21.60
2017-10-17T07:24:06.300Z,34.30
2017-10-17T07:26:32.820Z,29.63
2017-10-17T07:28:59.255Z,24.17
2017-10-17T07:31:25.692Z,19.58
2017-10-17T07:33:52.490Z,21.43
2017-10-17T07:36:18.915Z,10.20
2017-10-17T07:38:45.346Z,8.00
2017-10-17T07:41:11.857Z,6.83
2017-10-17T07:43:39.026Z,7.80
2017-10-17T07:46:05.729Z,6.53
2017-10-17T07:48:32.189Z,6.33
2017-10-17T07:50:59.361Z,6.90
2017-10-17T07:53:25.885Z,6.10
2017-10-17T07:55:52.311Z,6.70
2017-10-17T07:58:18.738Z,6.00
2017-10-17T08:00:45.954Z,5.80
2017-10-17T08:03:12.459Z,5.10
2017-10-17T08:05:38.930Z,5.70
2017-10-17T08:08:05.562Z,5.97
2017-10-17T08:10:32.100Z,5.57
2017-10-17T08:12:58.510Z,5.57
2017-10-17T08:15:24.996Z,5.43
2017-10-17T08:17:52.250Z,5.40
2017-10-17T08:20:19.460Z,6.20
2017-10-17T08:22:45.868Z,5.93
2017-10-17T08:25:12.370Z,5.67
2017-10-17T08:27:38.785Z,5.50
2017-10-17T08:30:06.025Z,5.73
2017-10-17T08:32:32.429Z,5.53
2017-10-17T08:34:58.880Z,5.83
2017-10-17T08:37:25.303Z,5.80
2017-10-17T08:39:51.712Z,5.90
2017-10-17T08:42:18.192Z,5.53
2017-10-17T08:44:45.367Z,6.30
2017-10-17T08:47:11.807Z,5.60
2017-10-17T08:49:38.332Z,5.67
2017-10-17T08:52:04.836Z,5.87
2017-10-17T08:54:31.292Z,5.80
2017-10-17T08:56:58.489Z,5.27
2017-10-17T08:59:24.910Z,5.63
2017-10-17T09:01:51.361Z,5.23
2017-10-17T09:04:17.846Z,5.60
2017-10-17T09:06:45.052Z,5.53
2017-10-17T09:09:11.475Z,6.10
2017-10-17T09:11:37.906Z,5.83
2017-10-17T09:14:04.331Z,6.70
2017-10-17T09:16:30.765Z,6.90
2017-10-17T09:18:57.227Z,6.00
2017-10-17T09:21:23.693Z,6.23
2017-10-17T09:23:50.959Z,6.40
2017-10-17T09:26:23.696Z,5.87
2017-10-17T09:28:50.335Z,5.60
2017-10-17T09:31:16.770Z,5.80
2017-10-17T09:33:43.196Z,5.93
2017-10-17T09:36:09.732Z,5.50
2017-10-17T09:38:36.140Z,5.77
2017-10-17T09:41:02.610Z,5.60
2017-10-17T09:43:29.776Z,6.00
2017-10-17T09:45:56.949Z,7.17
2017-10-17T09:48:23.387Z,6.40
2017-10-17T09:50:49.815Z,7.23
2017-10-17T09:53:16.231Z,15.23
2017-10-17T09:55:42.701Z,19.90
2017-10-17T09:58:09.122Z,21.43
2017-10-17T10:00:35.537Z,22.37
2017-10-17T10:03:02.002Z,22.63
2017-10-17T10:05:28.501Z,25.07
2017-10-17T10:07:55.062Z,25.77
2017-10-17T10:10:21.499Z,26.70
2017-10-17T10:12:47.985Z,28.00
2017-10-17T10:15:15.212Z,28.43
2017-10-17T10:17:41.669Z,24.23
2017-10-17T10:20:08.823Z,27.37
2017-10-17T10:22:36.019Z,32.67
2017-10-17T10:25:02.462Z,32.53
2017-10-17T10:27:28.931Z,33.80
2017-10-17T10:29:56.092Z,36.20
2017-10-17T10:32:23.319Z,35.70
2017-10-17T10:34:49.749Z,36.70
2017-10-17T10:37:16.171Z,32.10
2017-10-17T10:39:42.607Z,29.93
2017-10-17T10:42:09.129Z,29.73
2017-10-17T10:44:36.416Z,27.93
2017-10-17T10:47:03.611Z,28.67
2017-10-17T10:49:30.095Z,28.80
2017-10-17T10:51:56.560Z,27.70
2017-10-17T10:54:23.018Z,29.83
2017-10-17T10:56:49.487Z,27.27
2017-10-17T10:59:15.914Z,27.87
2017-10-17T11:01:42.366Z,28.40
2017-10-17T11:04:09.703Z,26.30
2017-10-17T11:06:36.167Z,25.83
2017-10-17T11:09:03.450Z,26.90
2017-10-17T11:11:29.863Z,26.00
2017-10-17T11:13:56.380Z,25.50
2017-10-17T11:16:23.553Z,24.07
2017-10-17T11:18:49.965Z,25.17
2017-10-17T11:21:17.149Z,24.43
2017-10-17T11:23:43.607Z,23.77
2017-10-17T11:26:10.637Z,23.40
2017-10-17T11:28:37.058Z,24.07
2017-10-17T11:31:03.569Z,24.40
2017-10-17T11:33:30.024Z,23.93
2017-10-17T11:35:56.861Z,25.77
2017-10-17T11:38:23.281Z,23.27
2017-10-17T11:41:01.961Z,23.00
2017-10-17T11:43:52.300Z,30.07
2017-10-17T11:46:18.859Z,29.70
2017-10-17T11:48:45.328Z,26.80
2017-10-17T11:51:11.761Z,25.33
2017-10-17T11:53:38.252Z,24.67
2017-10-17T11:56:04.705Z,24.20
2017-10-17T11:58:31.158Z,23.10
2017-10-17T12:00:57.597Z,23.00
2017-10-17T12:03:24.038Z,23.63
2017-10-17T12:05:51.290Z,23.23
2017-10-17T12:08:18.504Z,22.30
2017-10-17T12:10:44.989Z,24.80
2017-10-17T12:13:12.273Z,23.10
2017-10-17T12:15:38.749Z,23.93
2017-10-17T12:18:05.211Z,23.30
2017-10-17T12:20:32.439Z,23.80
2017-10-17T12:22:59.617Z,25.47
2017-10-17T12:25:26.114Z,27.93
2017-10-17T12:27:52.544Z,30.43
2017-10-17T12:30:19.713Z,28.70
2017-10-17T12:32:46.885Z,28.63
2017-10-17T12:35:13.319Z,28.90
2017-10-17T12:37:39.786Z,30.53
2017-10-17T12:40:06.396Z,32.43
2017-10-17T12:42:32.886Z,30.83
2017-10-17T12:44:59.355Z,31.37
2017-10-17T12:47:25.812Z,31.70
2017-10-17T12:49:52.285Z,28.23
2017-10-17T12:52:18.825Z,29.60
2017-10-17T12:54:45.283Z,27.10
2017-10-17T12:57:12.471Z,25.30
2017-10-17T12:59:38.909Z,28.23
2017-10-17T13:02:05.367Z,25.90
2017-10-17T13:04:31.869Z,28.30
2017-10-17T13:06:58.397Z,25.17
2017-10-17T13:09:24.841Z,23.03
2017-10-17T13:11:51.322Z,22.63
2017-10-17T13:14:18.586Z,21.20
2017-10-17T13:16:46.183Z,20.27
2017-10-17T13:19:13.356Z,20.60
2017-10-17T13:21:39.797Z,20.93
2017-10-17T13:24:06.318Z,19.80
2017-10-17T13:26:32.867Z,19.67
2017-10-17T13:29:00.225Z,19.57
2017-10-17T13:31:27.453Z,20.03
2017-10-17T13:33:53.903Z,19.13
2017-10-17T13:36:20.409Z,18.83
2017-10-17T13:38:47.176Z,17.20
2017-10-17T13:41:13.618Z,18.03
2017-10-17T13:43:40.089Z,17.77
2017-10-17T13:46:07.279Z,17.73
2017-10-17T13:48:33.920Z,18.47
2017-10-17T13:51:00.357Z,17.60
2017-10-17T13:53:26.852Z,16.87
2017-10-17T13:55:53.392Z,17.47
2017-10-17T13:58:20.580Z,16.53
2017-10-17T14:00:47.080Z,16.37
2017-10-17T14:03:13.491Z,16.87
2017-10-17T14:05:39.906Z,16.40
2017-10-17T14:08:07.111Z,17.10
2017-10-17T14:10:33.913Z,15.83
2017-10-17T14:13:00.404Z,16.20
2017-10-17T14:15:26.864Z,16.77
2017-10-17T14:17:54.098Z,17.10
2017-10-17T14:20:21.353Z,16.77
2017-10-17T14:22:48.768Z,15.30
2017-10-17T14:25:15.200Z,16.27
2017-10-17T14:27:41.626Z,17.57
2017-10-17T14:30:08.892Z,16.67
2017-10-17T14:32:35.358Z,16.70
2017-10-17T14:35:01.865Z,17.00
2017-10-17T14:37:28.430Z,15.60
2017-10-17T14:39:55.007Z,15.80
2017-10-17T14:42:21.484Z,17.47
2017-10-17T14:44:48.438Z,17.50
2017-10-17T14:47:14.946Z,15.33
2017-10-17T14:49:41.750Z,16.17
2017-10-17T14:52:08.217Z,17.33
2017-10-17T14:54:34.688Z,15.30
2017-10-17T14:57:02.649Z,16.10
2017-10-17T14:59:29.057Z,17.23
2017-10-17T15:01:55.566Z,18.03
2017-10-17T15:04:22.088Z,16.77
2017-10-17T15:06:48.839Z,16.87
2017-10-17T15:09:15.294Z,15.77
2017-10-17T15:11:41.744Z,17.00
2017-10-17T15:14:08.448Z,15.53
2017-10-17T15:16:35.024Z,16.90
2017-10-17T15:19:01.493Z,14.37
2017-10-17T15:21:29.209Z,18.00
2017-10-17T15:23:55.892Z,15.63
2017-10-17T15:26:24.662Z,15.50
2017-10-17T15:28:51.353Z,17.23
2017-10-17T15:31:18.485Z,16.33
2017-10-17T15:33:45.270Z,14.80
2017-10-17T15:36:12.458Z,15.33
2017-10-17T15:38:39.663Z,16.20
2017-10-17T15:41:06.105Z,16.13
2017-10-17T15:43:33.721Z,16.33
2017-10-17T15:46:01.557Z,17.37
2017-10-17T15:48:29.301Z,17.63
2017-10-17T15:50:56.653Z,15.87
2017-10-17T15:53:23.377Z,16.60
2017-10-17T15:55:50.051Z,16.80
2017-10-17T15:58:17.342Z,15.93
2017-10-17T16:00:44.199Z,17.57
2017-10-17T16:03:11.089Z,17.60
2017-10-17T16:05:38.332Z,16.57
2017-10-17T16:08:06.591Z,17.20
2017-10-17T16:10:34.461Z,15.90
2017-10-17T16:13:00.955Z,16.77
2017-10-17T16:15:27.399Z,16.40
2017-10-17T16:17:53.921Z,16.60
2017-10-17T16:20:21.595Z,16.77
2017-10-17T16:22:48.542Z,16.20
2017-10-17T16:25:15.229Z,16.17
2017-10-17T16:27:42.466Z,17.00
2017-10-17T16:30:09.019Z,16.03
2017-10-17T16:32:36.222Z,16.67
2017-10-17T16:35:02.873Z,16.23
2017-10-17T16:37:29.637Z,16.13
2017-10-17T16:39:56.438Z,16.50
2017-10-17T16:42:23.084Z,16.07
2017-10-17T16:44:49.541Z,15.90
2017-10-17T16:47:16.208Z,17.53
2017-10-17T16:49:43.718Z,15.83
2017-10-17T16:52:10.415Z,17.23
2017-10-17T16:54:37.340Z,17.50
2017-10-17T16:57:04.635Z,15.20
2017-10-17T16:59:31.287Z,16.50
2017-10-17T17:01:57.835Z,15.43
2017-10-17T17:04:24.522Z,16.63
2017-10-17T17:06:50.980Z,15.30
2017-10-17T17:09:17.564Z,15.90
2017-10-17T17:11:44.957Z,16.43
2017-10-17T17:14:11.417Z,15.20
2017-10-17T17:16:37.993Z,16.33
2017-10-17T17:19:04.564Z,16.83
2017-10-17T17:21:31.158Z,16.80
2017-10-17T17:23:57.630Z,15.93
2017-10-17T17:26:24.198Z,15.40
2017-10-17T17:28:51.484Z,15.30
2017-10-17T17:31:18.773Z,15.53
2017-10-17T17:33:45.397Z,14.77
2017-10-17T17:36:13.121Z,15.30
2017-10-17T17:38:39.567Z,15.37
2017-10-17T17:41:06.805Z,15.80
2017-10-17T17:43:33.329Z,14.30
2017-10-17T17:45:59.864Z,14.53
2017-10-17T17:48:27.294Z,14.80
2017-10-17T17:50:53.941Z,15.50
2017-10-17T17:53:20.557Z,16.00
2017-10-17T17:55:47.606Z,16.47
2017-10-17T17:58:14.251Z,15.43
2017-10-17T18:00:40.875Z,16.40
2017-10-17T18:03:07.356Z,15.33
2017-10-17T18:05:34.055Z,15.00
2017-10-17T18:08:00.766Z,16.37
2017-10-17T18:10:28.032Z,15.27
2017-10-17T18:22:58.379Z,14.87
2017-10-17T18:25:25.001Z,16.40
2017-10-17T18:27:51.468Z,14.90
2017-10-17T18:30:18.720Z,15.23
2017-10-17T18:32:45.329Z,14.30
2017-10-17T18:35:12.570Z,16.17
2017-10-17T18:37:39.108Z,15.67
2017-10-17T18:40:06.020Z,14.83
2017-10-17T18:42:32.607Z,15.27
2017-10-17T18:44:59.133Z,15.57
2017-10-17T18:47:25.653Z,15.10
2017-10-17T18:49:52.193Z,15.10
2017-10-17T18:52:18.675Z,15.03
2017-10-17T18:54:46.024Z,14.03
2017-10-17T18:57:12.562Z,14.43
2017-10-17T18:59:39.872Z,14.73
2017-10-17T19:02:06.476Z,14.40
2017-10-17T19:04:33.004Z,14.90
2017-10-17T19:06:59.492Z,14.00
2017-10-17T19:09:26.806Z,14.17
2017-10-17T19:11:53.398Z,15.57
2017-10-17T19:14:19.965Z,15.97
2017-10-17T19:16:46.705Z,14.30
2017-10-17T19:19:13.576Z,14.47
2017-10-17T19:21:40.284Z,14.07
2017-10-17T19:24:06.821Z,14.47
2017-10-17T19:26:33.390Z,15.23
2017-10-17T19:28:59.904Z,15.27
2017-10-17T19:31:26.477Z,15.20
2017-10-17T19:33:53.005Z,14.40
2017-10-17T19:36:19.491Z,14.63
2017-10-17T19:38:46.027Z,14.67
2017-10-17T19:41:12.489Z,14.47
2017-10-17T19:43:38.979Z,14.93
2017-10-17T19:46:06.281Z,13.87
2017-10-17T19:48:32.919Z,14.53
2017-10-17T19:50:59.652Z,14.13
2017-10-17T19:53:33.224Z,15.10
2017-10-17T19:56:00.468Z,14.13
2017-10-17T19:58:27.796Z,14.63
2017-10-17T20:00:55.050Z,14.00
2017-10-17T20:03:21.629Z,16.07
2017-10-17T20:05:48.399Z,16.57
2017-10-17T20:08:14.918Z,16.10
2017-10-17T20:10:41.506Z,15.83
2017-10-17T20:13:08.772Z,15.50
2017-10-17T20:15:35.957Z,17.07
2017-10-17T20:20:35.681Z,16.33
2017-10-17T20:23:02.442Z,15.30
2017-10-17T20:25:28.953Z,16.67
2017-10-17T20:27:55.514Z,16.67
2017-10-17T20:30:22.167Z,16.90
2017-10-17T20:32:48.686Z,16.37
2017-10-17T20:35:15.170Z,18.20
2017-10-17T20:37:41.644Z,17.83
2017-10-17T20:40:08.104Z,18.30
2017-10-17T20:42:34.898Z,17.23
2017-10-17T20:45:01.453Z,17.60
2017-10-17T20:47:27.952Z,16.70
2017-10-17T20:49:54.419Z,17.40
2017-10-17T20:52:20.883Z,17.57
2017-10-17T20:54:47.352Z,17.57
2017-10-17T20:57:14.046Z,16.90
2017-10-17T20:59:40.628Z,18.17
2017-10-17T21:02:07.201Z,15.23
2017-10-17T21:04:33.630Z,17.00
2017-10-17T21:07:00.273Z,16.93
2017-10-17T21:09:26.920Z,17.20
2017-10-17T21:11:53.344Z,16.10
2017-10-17T21:14:19.833Z,16.07
2017-10-17T21:16:46.337Z,16.97
2017-10-17T21:19:12.868Z,16.40
2017-10-17T21:21:39.355Z,16.83
2017-10-17T21:24:05.928Z,16.60
2017-10-17T21:26:32.401Z,16.53
2017-10-17T21:28:59.588Z,16.67
2017-10-17T21:31:26.032Z,17.07
2017-10-17T21:33:52.489Z,17.87
2017-10-17T21:36:19.057Z,16.80
2017-10-17T21:38:46.369Z,16.33
2017-10-17T21:41:12.886Z,17.50
2017-10-17T21:43:39.362Z,18.37
2017-10-17T21:46:06.668Z,16.87
2017-10-17T21:48:33.186Z,17.83
2017-10-17T21:50:59.660Z,16.40
2017-10-17T21:53:26.130Z,16.20
2017-10-17T21:55:53.287Z,16.50
2017-10-17T21:58:19.744Z,16.50
2017-10-17T22:00:58.297Z,17.40
2017-10-17T22:03:24.813Z,17.53
2017-10-17T22:05:51.366Z,16.70
2017-10-17T22:08:17.834Z,16.63
2017-10-17T22:10:44.306Z,16.00
2017-10-17T22:13:10.767Z,15.53
2017-10-17T22:15:37.205Z,15.20
2017-10-17T22:18:03.669Z,16.10
